sensor_id;sensor_type;location;lat;lon;timestamp;P1;durP1;ratioP1;P2;durP2;ratioP2
58306;SDS011;44116;50.884;4.768;2023-07-13T00:01:54;7.4;;;1.8;;
58306;SDS011;44116;50.884;4.768;2023-07-13T00:03:54;7.0;;;1.6;;
58306;SDS011;44116;50.884;4.768;2023-07-13T00:09:54;6.5;;;1.9;;
58306;SDS011;44116;50.884;4.768;2023-07-13T00:11:55;6.5;;;1.8;;
58306;SDS011;44116;50.884;4.768;2023-07-13T00:13:53;7.0;;;1.5;;
58306;SDS011;44116;50.884;4.768;2023-07-13T00:15:53;6.8;;;1.8;;
58306;SDS011;44116;50.884;4.768;2023-07-13T00:17:54;9.6;;;1.9;;
58306;SDS011;44116;50.884;4.768;2023-07-13T00:19:54;9.0;;;2.3;;
58306;SDS011;44116;50.884;4.768;2023-07-13T00:21:53;8.2;;;1.7;;
58306;SDS011;44116;50.884;4.768;2023-07-13T00:23:53;5.1;;;1.6;;
58306;SDS011;44116;50.884;4.768;2023-07-13T00:25:53;9.5;;;2.0;;
58306;SDS011;44116;50.884;4.768;2023-07-13T00:27:53;4.8;;;2.1;;
58306;SDS011;44116;50.884;4.768;2023-07-13T00:29:53;5.9;;;2.0;;
58306;SDS011;44116;50.884;4.768;2023-07-13T00:31:53;6.1;;;1.7;;
58306;SDS011;44116;50.884;4.768;2023-07-13T00:33:52;8.1;;;2.2;;
58306;SDS011;44116;50.884;4.768;2023-07-13T00:35:53;6.8;;;1.5;;
58306;SDS011;44116;50.884;4.768;2023-07-13T00:37:52;7.8;;;2.1;;
58306;SDS011;44116;50.884;4.768;2023-07-13T00:41:52;4.4;;;1.7;;
58306;SDS011;44116;50.884;4.768;2023-07-13T00:43:52;8.9;;;2.2;;
58306;SDS011;44116;50.884;4.768;2023-07-13T00:46:14;7.1;;;1.9;;
58306;SDS011;44116;50.884;4.768;2023-07-13T00:47:52;7.6;;;2.0;;
58306;SDS011;44116;50.884;4.768;2023-07-13T00:51:55;10.1;;;1.8;;
58306;SDS011;44116;50.884;4.768;2023-07-13T00:53:54;9.4;;;2.1;;
58306;SDS011;44116;50.884;4.768;2023-07-13T00:55:54;6.7;;;2.2;;
58306;SDS011;44116;50.884;4.768;2023-07-13T00:57:52;10.6;;;2.0;;
58306;SDS011;44116;50.884;4.768;2023-07-13T00:59:56;8.6;;;2.1;;
58306;SDS011;44116;50.884;4.768;2023-07-13T01:03:52;8.1;;;1.8;;
58306;SDS011;44116;50.884;4.768;2023-07-13T01:05:52;7.2;;;2.0;;
58306;SDS011;44116;50.884;4.768;2023-07-13T01:07:52;10.9;;;2.1;;
58306;SDS011;44116;50.884;4.768;2023-07-13T01:09:51;10.9;;;2.2;;
58306;SDS011;44116;50.884;4.768;2023-07-13T01:11:51;6.6;;;1.8;;
58306;SDS011;44116;50.884;4.768;2023-07-13T01:13:52;8.0;;;2.2;;
58306;SDS011;44116;50.884;4.768;2023-07-13T01:15:52;7.9;;;2.3;;
58306;SDS011;44116;50.884;4.768;2023-07-13T01:17:51;9.1;;;2.0;;
58306;SDS011;44116;50.884;4.768;2023-07-13T01:21:52;8.3;;;2.4;;
58306;SDS011;44116;50.884;4.768;2023-07-13T01:23:51;6.8;;;2.0;;
58306;SDS011;44116;50.884;4.768;2023-07-13T01:25:51;8.6;;;2.2;;
58306;SDS011;44116;50.884;4.768;2023-07-13T01:27:52;7.8;;;2.4;;
58306;SDS011;44116;50.884;4.768;2023-07-13T01:29:52;7.9;;;2.2;;
58306;SDS011;44116;50.884;4.768;2023-07-13T01:31:50;9.1;;;2.3;;
58306;SDS011;44116;50.884;4.768;2023-07-13T01:33:51;8.6;;;2.0;;
58306;SDS011;44116;50.884;4.768;2023-07-13T01:35:50;7.7;;;2.1;;
58306;SDS011;44116;50.884;4.768;2023-07-13T01:37:50;8.4;;;1.9;;
58306;SDS011;44116;50.884;4.768;2023-07-13T01:39:50;10.3;;;2.3;;
58306;SDS011;44116;50.884;4.768;2023-07-13T01:43:50;9.4;;;2.2;;
58306;SDS011;44116;50.884;4.768;2023-07-13T01:45:50;7.2;;;2.0;;
58306;SDS011;44116;50.884;4.768;2023-07-13T01:47:50;9.8;;;2.2;;
58306;SDS011;44116;50.884;4.768;2023-07-13T01:49:50;9.0;;;1.9;;
58306;SDS011;44116;50.884;4.768;2023-07-13T01:51:50;9.9;;;2.3;;
58306;SDS011;44116;50.884;4.768;2023-07-13T01:53:50;7.0;;;2.1;;
58306;SDS011;44116;50.884;4.768;2023-07-13T01:57:50;9.1;;;2.3;;
58306;SDS011;44116;50.884;4.768;2023-07-13T01:59:49;9.6;;;2.7;;
58306;SDS011;44116;50.884;4.768;2023-07-13T02:01:49;9.0;;;2.2;;
58306;SDS011;44116;50.884;4.768;2023-07-13T02:03:49;9.2;;;2.1;;
58306;SDS011;44116;50.884;4.768;2023-07-13T02:05:49;9.3;;;2.6;;
58306;SDS011;44116;50.884;4.768;2023-07-13T02:07:49;9.7;;;2.3;;
58306;SDS011;44116;50.884;4.768;2023-07-13T02:09:49;8.0;;;2.0;;
58306;SDS011;44116;50.884;4.768;2023-07-13T02:11:49;8.9;;;2.3;;
58306;SDS011;44116;50.884;4.768;2023-07-13T02:13:49;6.2;;;2.1;;
58306;SDS011;44116;50.884;4.768;2023-07-13T02:15:50;7.0;;;2.2;;
58306;SDS011;44116;50.884;4.768;2023-07-13T02:17:48;7.5;;;2.0;;
58306;SDS011;44116;50.884;4.768;2023-07-13T02:19:48;9.1;;;2.5;;
58306;SDS011;44116;50.884;4.768;2023-07-13T02:21:48;8.4;;;2.3;;
58306;SDS011;44116;50.884;4.768;2023-07-13T02:23:48;8.2;;;2.1;;
58306;SDS011;44116;50.884;4.768;2023-07-13T02:25:48;7.4;;;2.3;;
58306;SDS011;44116;50.884;4.768;2023-07-13T02:27:48;8.6;;;2.2;;
58306;SDS011;44116;50.884;4.768;2023-07-13T02:29:48;9.7;;;2.1;;
58306;SDS011;44116;50.884;4.768;2023-07-13T02:31:48;10.7;;;2.5;;
58306;SDS011;44116;50.884;4.768;2023-07-13T02:33:48;10.5;;;2.7;;
58306;SDS011;44116;50.884;4.768;2023-07-13T02:35:47;7.5;;;2.0;;
58306;SDS011;44116;50.884;4.768;2023-07-13T02:37:47;7.2;;;2.3;;
58306;SDS011;44116;50.884;4.768;2023-07-13T02:39:47;10.5;;;2.8;;
58306;SDS011;44116;50.884;4.768;2023-07-13T02:41:47;7.4;;;2.3;;
58306;SDS011;44116;50.884;4.768;2023-07-13T02:43:47;8.7;;;2.5;;
58306;SDS011;44116;50.884;4.768;2023-07-13T02:47:47;11.8;;;2.7;;
58306;SDS011;44116;50.884;4.768;2023-07-13T02:49:47;9.4;;;2.6;;
58306;SDS011;44116;50.884;4.768;2023-07-13T02:51:47;8.4;;;2.5;;
58306;SDS011;44116;50.884;4.768;2023-07-13T02:53:46;10.7;;;2.6;;
58306;SDS011;44116;50.884;4.768;2023-07-13T02:55:46;9.7;;;2.7;;
58306;SDS011;44116;50.884;4.768;2023-07-13T02:57:46;9.3;;;2.5;;
58306;SDS011;44116;50.884;4.768;2023-07-13T03:01:46;9.4;;;2.6;;
58306;SDS011;44116;50.884;4.768;2023-07-13T03:03:46;6.4;;;2.3;;
58306;SDS011;44116;50.884;4.768;2023-07-13T03:05:46;8.8;;;2.7;;
58306;SDS011;44116;50.884;4.768;2023-07-13T03:09:46;9.9;;;2.4;;
58306;SDS011;44116;50.884;4.768;2023-07-13T03:13:46;12.2;;;2.7;;
58306;SDS011;44116;50.884;4.768;2023-07-13T03:15:48;8.6;;;2.6;;
58306;SDS011;44116;50.884;4.768;2023-07-13T03:19:45;11.5;;;3.0;;
58306;SDS011;44116;50.884;4.768;2023-07-13T03:21:45;12.6;;;2.7;;
58306;SDS011;44116;50.884;4.768;2023-07-13T03:23:46;11.7;;;2.5;;
58306;SDS011;44116;50.884;4.768;2023-07-13T03:25:45;7.0;;;2.2;;
58306;SDS011;44116;50.884;4.768;2023-07-13T03:27:45;10.5;;;2.8;;
58306;SDS011;44116;50.884;4.768;2023-07-13T03:29:45;9.3;;;2.5;;
58306;SDS011;44116;50.884;4.768;2023-07-13T03:31:44;12.3;;;3.1;;
58306;SDS011;44116;50.884;4.768;2023-07-13T03:33:45;8.3;;;2.7;;
58306;SDS011;44116;50.884;4.768;2023-07-13T03:35:44;9.7;;;2.4;;
58306;SDS011;44116;50.884;4.768;2023-07-13T03:37:44;10.6;;;2.5;;
58306;SDS011;44116;50.884;4.768;2023-07-13T03:41:44;11.8;;;2.8;;
58306;SDS011;44116;50.884;4.768;2023-07-13T03:43:44;12.8;;;3.0;;
58306;SDS011;44116;50.884;4.768;2023-07-13T03:45:44;10.1;;;2.5;;
58306;SDS011;44116;50.884;4.768;2023-07-13T03:47:44;6.9;;;2.3;;
58306;SDS011;44116;50.884;4.768;2023-07-13T03:51:44;12.7;;;2.9;;
58306;SDS011;44116;50.884;4.768;2023-07-13T03:53:45;8.4;;;2.6;;
58306;SDS011;44116;50.884;4.768;2023-07-13T03:55:44;11.3;;;2.8;;
58306;SDS011;44116;50.884;4.768;2023-07-13T03:57:43;10.7;;;2.6;;
58306;SDS011;44116;50.884;4.768;2023-07-13T03:59:43;9.8;;;2.7;;
58306;SDS011;44116;50.884;4.768;2023-07-13T04:01:43;8.3;;;2.4;;
58306;SDS011;44116;50.884;4.768;2023-07-13T04:07:43;9.3;;;2.6;;
58306;SDS011;44116;50.884;4.768;2023-07-13T04:09:43;9.6;;;2.7;;
58306;SDS011;44116;50.884;4.768;2023-07-13T04:13:43;10.3;;;2.4;;
58306;SDS011;44116;50.884;4.768;2023-07-13T04:15:42;7.5;;;2.3;;
58306;SDS011;44116;50.884;4.768;2023-07-13T04:17:42;9.4;;;2.1;;
58306;SDS011;44116;50.884;4.768;2023-07-13T04:19:42;9.9;;;2.6;;
58306;SDS011;44116;50.884;4.768;2023-07-13T04:21:42;10.0;;;2.5;;
58306;SDS011;44116;50.884;4.768;2023-07-13T04:25:43;13.8;;;3.3;;
58306;SDS011;44116;50.884;4.768;2023-07-13T04:27:42;13.5;;;3.1;;
58306;SDS011;44116;50.884;4.768;2023-07-13T04:29:42;10.2;;;2.8;;
58306;SDS011;44116;50.884;4.768;2023-07-13T04:35:41;15.8;;;3.0;;
58306;SDS011;44116;50.884;4.768;2023-07-13T04:37:41;8.5;;;2.8;;
58306;SDS011;44116;50.884;4.768;2023-07-13T04:39:41;9.5;;;2.6;;
58306;SDS011;44116;50.884;4.768;2023-07-13T04:41:41;8.8;;;2.1;;
58306;SDS011;44116;50.884;4.768;2023-07-13T04:43:41;11.5;;;2.9;;
58306;SDS011;44116;50.884;4.768;2023-07-13T04:45:41;10.2;;;2.5;;
58306;SDS011;44116;50.884;4.768;2023-07-13T04:47:41;12.1;;;3.0;;
58306;SDS011;44116;50.884;4.768;2023-07-13T04:49:41;12.2;;;2.8;;
58306;SDS011;44116;50.884;4.768;2023-07-13T04:51:41;10.4;;;2.3;;
58306;SDS011;44116;50.884;4.768;2023-07-13T04:53:40;16.4;;;3.0;;
58306;SDS011;44116;50.884;4.768;2023-07-13T04:55:40;10.0;;;2.5;;
58306;SDS011;44116;50.884;4.768;2023-07-13T04:59:40;10.1;;;2.8;;
58306;SDS011;44116;50.884;4.768;2023-07-13T05:05:40;12.6;;;3.0;;
58306;SDS011;44116;50.884;4.768;2023-07-13T05:07:40;11.9;;;3.2;;
58306;SDS011;44116;50.884;4.768;2023-07-13T05:09:40;12.4;;;2.8;;
58306;SDS011;44116;50.884;4.768;2023-07-13T05:13:40;12.3;;;3.3;;
58306;SDS011;44116;50.884;4.768;2023-07-13T05:15:39;13.9;;;3.1;;
58306;SDS011;44116;50.884;4.768;2023-07-13T05:21:39;11.1;;;2.7;;
58306;SDS011;44116;50.884;4.768;2023-07-13T05:23:40;12.9;;;2.9;;
58306;SDS011;44116;50.884;4.768;2023-07-13T05:25:39;13.0;;;3.0;;
58306;SDS011;44116;50.884;4.768;2023-07-13T05:29:39;12.9;;;2.9;;
58306;SDS011;44116;50.884;4.768;2023-07-13T05:33:39;13.1;;;3.2;;
58306;SDS011;44116;50.884;4.768;2023-07-13T05:35:39;11.5;;;2.9;;
58306;SDS011;44116;50.884;4.768;2023-07-13T05:37:39;14.2;;;3.0;;
58306;SDS011;44116;50.884;4.768;2023-07-13T05:41:38;14.0;;;3.1;;
58306;SDS011;44116;50.884;4.768;2023-07-13T05:43:38;14.2;;;3.0;;
58306;SDS011;44116;50.884;4.768;2023-07-13T05:47:38;17.1;;;3.4;;
58306;SDS011;44116;50.884;4.768;2023-07-13T05:49:38;10.4;;;3.0;;
58306;SDS011;44116;50.884;4.768;2023-07-13T05:51:38;13.3;;;3.4;;
58306;SDS011;44116;50.884;4.768;2023-07-13T05:53:38;11.4;;;2.8;;
58306;SDS011;44116;50.884;4.768;2023-07-13T05:55:41;13.2;;;3.1;;
58306;SDS011;44116;50.884;4.768;2023-07-13T05:57:38;13.6;;;3.4;;
58306;SDS011;44116;50.884;4.768;2023-07-13T05:59:38;12.7;;;3.2;;
58306;SDS011;44116;50.884;4.768;2023-07-13T06:01:38;13.8;;;2.7;;
58306;SDS011;44116;50.884;4.768;2023-07-13T06:03:38;12.4;;;3.1;;
58306;SDS011;44116;50.884;4.768;2023-07-13T06:09:38;13.2;;;3.6;;
58306;SDS011;44116;50.884;4.768;2023-07-13T06:11:38;13.7;;;3.0;;
58306;SDS011;44116;50.884;4.768;2023-07-13T06:13:38;12.2;;;3.3;;
58306;SDS011;44116;50.884;4.768;2023-07-13T06:15:37;8.8;;;3.2;;
58306;SDS011;44116;50.884;4.768;2023-07-13T06:17:37;11.5;;;2.9;;
58306;SDS011;44116;50.884;4.768;2023-07-13T06:19:37;11.6;;;3.2;;
58306;SDS011;44116;50.884;4.768;2023-07-13T06:21:37;12.9;;;3.3;;
58306;SDS011;44116;50.884;4.768;2023-07-13T06:25:37;14.9;;;3.5;;
58306;SDS011;44116;50.884;4.768;2023-07-13T06:27:37;14.4;;;3.6;;
58306;SDS011;44116;50.884;4.768;2023-07-13T06:29:37;12.6;;;3.1;;
58306;SDS011;44116;50.884;4.768;2023-07-13T06:31:37;14.7;;;3.3;;
58306;SDS011;44116;50.884;4.768;2023-07-13T06:33:37;14.5;;;3.2;;
58306;SDS011;44116;50.884;4.768;2023-07-13T06:37:37;12.5;;;3.6;;
58306;SDS011;44116;50.884;4.768;2023-07-13T06:39:37;13.5;;;3.5;;
58306;SDS011;44116;50.884;4.768;2023-07-13T06:41:37;11.5;;;3.4;;
58306;SDS011;44116;50.884;4.768;2023-07-13T06:43:37;14.2;;;3.9;;
58306;SDS011;44116;50.884;4.768;2023-07-13T06:45:41;17.0;;;3.8;;
58306;SDS011;44116;50.884;4.768;2023-07-13T06:47:37;13.6;;;3.2;;
58306;SDS011;44116;50.884;4.768;2023-07-13T06:49:37;14.3;;;3.5;;
58306;SDS011;44116;50.884;4.768;2023-07-13T06:51:37;12.5;;;3.1;;
58306;SDS011;44116;50.884;4.768;2023-07-13T06:53:37;14.9;;;3.6;;
58306;SDS011;44116;50.884;4.768;2023-07-13T06:57:37;12.2;;;3.5;;
58306;SDS011;44116;50.884;4.768;2023-07-13T06:59:37;12.5;;;3.4;;
58306;SDS011;44116;50.884;4.768;2023-07-13T07:01:37;11.9;;;3.1;;
58306;SDS011;44116;50.884;4.768;2023-07-13T07:03:37;11.4;;;3.3;;
58306;SDS011;44116;50.884;4.768;2023-07-13T07:09:36;13.8;;;3.6;;
58306;SDS011;44116;50.884;4.768;2023-07-13T07:11:36;13.5;;;3.1;;
58306;SDS011;44116;50.884;4.768;2023-07-13T07:13:36;15.4;;;3.8;;
58306;SDS011;44116;50.884;4.768;2023-07-13T07:15:36;10.9;;;3.1;;
58306;SDS011;44116;50.884;4.768;2023-07-13T07:17:37;13.3;;;3.9;;
58306;SDS011;44116;50.884;4.768;2023-07-13T07:19:37;13.0;;;3.5;;
58306;SDS011;44116;50.884;4.768;2023-07-13T07:21:36;13.2;;;3.4;;
58306;SDS011;44116;50.884;4.768;2023-07-13T07:23:36;18.0;;;4.0;;
58306;SDS011;44116;50.884;4.768;2023-07-13T07:25:36;13.6;;;3.7;;
58306;SDS011;44116;50.884;4.768;2023-07-13T07:27:36;13.9;;;3.4;;
58306;SDS011;44116;50.884;4.768;2023-07-13T07:29:36;20.2;;;3.9;;
58306;SDS011;44116;50.884;4.768;2023-07-13T07:31:36;16.6;;;3.4;;
58306;SDS011;44116;50.884;4.768;2023-07-13T07:33:36;18.3;;;3.8;;
58306;SDS011;44116;50.884;4.768;2023-07-13T07:35:36;14.2;;;3.6;;
58306;SDS011;44116;50.884;4.768;2023-07-13T07:37:36;15.9;;;3.9;;
58306;SDS011;44116;50.884;4.768;2023-07-13T07:39:36;10.2;;;3.1;;
58306;SDS011;44116;50.884;4.768;2023-07-13T07:41:37;12.5;;;3.5;;
58306;SDS011;44116;50.884;4.768;2023-07-13T07:43:36;11.7;;;3.3;;
58306;SDS011;44116;50.884;4.768;2023-07-13T07:45:37;15.0;;;3.7;;
58306;SDS011;44116;50.884;4.768;2023-07-13T07:47:36;12.7;;;3.4;;
58306;SDS011;44116;50.884;4.768;2023-07-13T07:49:37;11.3;;;3.2;;
58306;SDS011;44116;50.884;4.768;2023-07-13T07:53:36;15.4;;;3.6;;
58306;SDS011;44116;50.884;4.768;2023-07-13T07:55:59;12.0;;;2.9;;
58306;SDS011;44116;50.884;4.768;2023-07-13T07:57:36;11.9;;;3.4;;
58306;SDS011;44116;50.884;4.768;2023-07-13T07:59:37;12.7;;;3.1;;
58306;SDS011;44116;50.884;4.768;2023-07-13T08:01:36;14.1;;;3.4;;
58306;SDS011;44116;50.884;4.768;2023-07-13T08:03:36;8.4;;;2.8;;
58306;SDS011;44116;50.884;4.768;2023-07-13T08:05:36;12.8;;;3.1;;
58306;SDS011;44116;50.884;4.768;2023-07-13T08:07:38;13.5;;;3.4;;
58306;SDS011;44116;50.884;4.768;2023-07-13T08:09:36;12.3;;;3.1;;
58306;SDS011;44116;50.884;4.768;2023-07-13T08:11:36;12.5;;;3.0;;
58306;SDS011;44116;50.884;4.768;2023-07-13T08:13:37;11.9;;;3.1;;
58306;SDS011;44116;50.884;4.768;2023-07-13T08:17:37;12.4;;;2.8;;
58306;SDS011;44116;50.884;4.768;2023-07-13T08:19:37;11.5;;;3.0;;
58306;SDS011;44116;50.884;4.768;2023-07-13T08:23:36;13.1;;;3.1;;
58306;SDS011;44116;50.884;4.768;2023-07-13T08:25:37;11.2;;;2.9;;
58306;SDS011;44116;50.884;4.768;2023-07-13T08:27:37;11.2;;;3.0;;
58306;SDS011;44116;50.884;4.768;2023-07-13T08:29:37;10.2;;;2.8;;
58306;SDS011;44116;50.884;4.768;2023-07-13T08:33:37;11.7;;;3.3;;
58306;SDS011;44116;50.884;4.768;2023-07-13T08:35:37;11.8;;;3.2;;
58306;SDS011;44116;50.884;4.768;2023-07-13T08:37:37;13.0;;;3.3;;
58306;SDS011;44116;50.884;4.768;2023-07-13T08:39:37;11.7;;;2.7;;
58306;SDS011;44116;50.884;4.768;2023-07-13T08:43:37;8.9;;;2.9;;
58306;SDS011;44116;50.884;4.768;2023-07-13T08:47:48;10.0;;;2.7;;
58306;SDS011;44116;50.884;4.768;2023-07-13T08:49:37;8.9;;;2.9;;
58306;SDS011;44116;50.884;4.768;2023-07-13T08:51:42;9.9;;;2.6;;
58306;SDS011;44116;50.884;4.768;2023-07-13T08:55:37;9.0;;;3.1;;
58306;SDS011;44116;50.884;4.768;2023-07-13T08:57:39;11.2;;;2.7;;
58306;SDS011;44116;50.884;4.768;2023-07-13T09:01:49;9.6;;;2.8;;
58306;SDS011;44116;50.884;4.768;2023-07-13T09:03:44;10.1;;;2.4;;
58306;SDS011;44116;50.884;4.768;2023-07-13T09:05:40;8.3;;;2.5;;
58306;SDS011;44116;50.884;4.768;2023-07-13T09:07:45;11.5;;;2.9;;
58306;SDS011;44116;50.884;4.768;2023-07-13T09:09:47;9.1;;;2.4;;
58306;SDS011;44116;50.884;4.768;2023-07-13T09:11:46;7.3;;;2.2;;
58306;SDS011;44116;50.884;4.768;2023-07-13T09:13:43;9.2;;;2.6;;
58306;SDS011;44116;50.884;4.768;2023-07-13T09:15:41;8.4;;;2.5;;
58306;SDS011;44116;50.884;4.768;2023-07-13T09:17:42;8.0;;;2.2;;
58306;SDS011;44116;50.884;4.768;2023-07-13T09:19:39;9.8;;;2.4;;
58306;SDS011;44116;50.884;4.768;2023-07-13T09:23:38;8.4;;;2.3;;
58306;SDS011;44116;50.884;4.768;2023-07-13T09:25:39;10.6;;;2.5;;
58306;SDS011;44116;50.884;4.768;2023-07-13T09:27:39;10.1;;;2.3;;
58306;SDS011;44116;50.884;4.768;2023-07-13T09:29:41;10.2;;;2.4;;
58306;SDS011;44116;50.884;4.768;2023-07-13T09:31:42;7.9;;;2.5;;
58306;SDS011;44116;50.884;4.768;2023-07-13T09:33:38;7.3;;;2.3;;
58306;SDS011;44116;50.884;4.768;2023-07-13T09:35:38;8.4;;;2.2;;
58306;SDS011;44116;50.884;4.768;2023-07-13T09:39:40;8.3;;;2.4;;
58306;SDS011;44116;50.884;4.768;2023-07-13T09:41:47;8.1;;;2.3;;
58306;SDS011;44116;50.884;4.768;2023-07-13T09:43:39;8.8;;;2.4;;
58306;SDS011;44116;50.884;4.768;2023-07-13T09:45:38;7.3;;;2.2;;
58306;SDS011;44116;50.884;4.768;2023-07-13T09:47:40;8.2;;;2.4;;
58306;SDS011;44116;50.884;4.768;2023-07-13T09:49:38;11.0;;;2.5;;
58306;SDS011;44116;50.884;4.768;2023-07-13T09:51:41;6.6;;;2.3;;
58306;SDS011;44116;50.884;4.768;2023-07-13T09:53:41;5.9;;;1.8;;
58306;SDS011;44116;50.884;4.768;2023-07-13T09:55:40;6.8;;;2.2;;
58306;SDS011;44116;50.884;4.768;2023-07-13T10:01:39;9.5;;;2.6;;
58306;SDS011;44116;50.884;4.768;2023-07-13T10:03:39;7.8;;;2.0;;
58306;SDS011;44116;50.884;4.768;2023-07-13T10:05:41;8.9;;;2.2;;
58306;SDS011;44116;50.884;4.768;2023-07-13T10:07:42;9.1;;;2.6;;
58306;SDS011;44116;50.884;4.768;2023-07-13T10:09:39;7.1;;;2.0;;
58306;SDS011;44116;50.884;4.768;2023-07-13T10:15:40;6.8;;;2.1;;
58306;SDS011;44116;50.884;4.768;2023-07-13T10:17:40;4.9;;;1.9;;
58306;SDS011;44116;50.884;4.768;2023-07-13T10:19:41;9.4;;;2.1;;
58306;SDS011;44116;50.884;4.768;2023-07-13T10:23:41;6.9;;;2.0;;
58306;SDS011;44116;50.884;4.768;2023-07-13T10:25:42;6.1;;;1.9;;
58306;SDS011;44116;50.884;4.768;2023-07-13T10:27:40;7.8;;;2.1;;
58306;SDS011;44116;50.884;4.768;2023-07-13T10:29:45;6.6;;;2.3;;
58306;SDS011;44116;50.884;4.768;2023-07-13T10:31:41;8.5;;;1.9;;
58306;SDS011;44116;50.884;4.768;2023-07-13T10:33:40;7.6;;;2.2;;
58306;SDS011;44116;50.884;4.768;2023-07-13T10:35:43;7.2;;;2.0;;
58306;SDS011;44116;50.884;4.768;2023-07-13T10:39:41;5.3;;;1.8;;
58306;SDS011;44116;50.884;4.768;2023-07-13T10:41:42;6.9;;;1.9;;
58306;SDS011;44116;50.884;4.768;2023-07-13T10:45:41;9.4;;;2.2;;
58306;SDS011;44116;50.884;4.768;2023-07-13T10:47:42;5.9;;;1.8;;
58306;SDS011;44116;50.884;4.768;2023-07-13T10:49:42;5.7;;;2.0;;
58306;SDS011;44116;50.884;4.768;2023-07-13T10:51:41;8.1;;;2.1;;
58306;SDS011;44116;50.884;4.768;2023-07-13T10:53:41;7.6;;;1.9;;
58306;SDS011;44116;50.884;4.768;2023-07-13T10:55:55;7.6;;;2.2;;
58306;SDS011;44116;50.884;4.768;2023-07-13T10:57:42;6.9;;;2.0;;
58306;SDS011;44116;50.884;4.768;2023-07-13T10:59:43;5.7;;;1.9;;
58306;SDS011;44116;50.884;4.768;2023-07-13T11:01:52;8.7;;;2.0;;
58306;SDS011;44116;50.884;4.768;2023-07-13T11:03:49;6.5;;;1.9;;
58306;SDS011;44116;50.884;4.768;2023-07-13T11:05:43;7.3;;;1.7;;
58306;SDS011;44116;50.884;4.768;2023-07-13T11:07:52;8.1;;;2.1;;
58306;SDS011;44116;50.884;4.768;2023-07-13T11:09:42;5.3;;;1.7;;
58306;SDS011;44116;50.884;4.768;2023-07-13T11:11:43;5.6;;;2.0;;
58306;SDS011;44116;50.884;4.768;2023-07-13T11:15:45;8.4;;;2.1;;
58306;SDS011;44116;50.884;4.768;2023-07-13T11:17:49;7.0;;;1.8;;
58306;SDS011;44116;50.884;4.768;2023-07-13T11:19:43;6.0;;;1.7;;
58306;SDS011;44116;50.884;4.768;2023-07-13T11:22:02;6.7;;;1.8;;
58306;SDS011;44116;50.884;4.768;2023-07-13T11:23:45;7.8;;;1.9;;
58306;SDS011;44116;50.884;4.768;2023-07-13T11:25:44;6.5;;;1.8;;
58306;SDS011;44116;50.884;4.768;2023-07-13T11:27:50;5.7;;;1.9;;
58306;SDS011;44116;50.884;4.768;2023-07-13T11:29:44;5.6;;;1.8;;
58306;SDS011;44116;50.884;4.768;2023-07-13T11:31:51;7.3;;;1.7;;
58306;SDS011;44116;50.884;4.768;2023-07-13T11:33:52;8.2;;;1.8;;
58306;SDS011;44116;50.884;4.768;2023-07-13T11:37:45;6.4;;;1.9;;
58306;SDS011;44116;50.884;4.768;2023-07-13T11:39:46;7.5;;;2.0;;
58306;SDS011;44116;50.884;4.768;2023-07-13T11:41:50;6.4;;;1.8;;
58306;SDS011;44116;50.884;4.768;2023-07-13T11:47:45;5.8;;;1.6;;
58306;SDS011;44116;50.884;4.768;2023-07-13T11:49:48;7.0;;;2.0;;
58306;SDS011;44116;50.884;4.768;2023-07-13T11:53:48;8.8;;;1.6;;
58306;SDS011;44116;50.884;4.768;2023-07-13T11:55:45;7.2;;;2.3;;
58306;SDS011;44116;50.884;4.768;2023-07-13T11:57:49;5.9;;;1.8;;
58306;SDS011;44116;50.884;4.768;2023-07-13T12:01:49;5.3;;;1.5;;
58306;SDS011;44116;50.884;4.768;2023-07-13T12:03:46;8.1;;;1.8;;
58306;SDS011;44116;50.884;4.768;2023-07-13T12:07:47;7.6;;;1.9;;
58306;SDS011;44116;50.884;4.768;2023-07-13T12:13:47;6.6;;;1.6;;
58306;SDS011;44116;50.884;4.768;2023-07-13T12:17:47;5.8;;;1.8;;
58306;SDS011;44116;50.884;4.768;2023-07-13T12:21:48;5.9;;;1.9;;
58306;SDS011;44116;50.884;4.768;2023-07-13T12:23:49;5.2;;;1.6;;
58306;SDS011;44116;50.884;4.768;2023-07-13T12:25:47;3.9;;;1.5;;
58306;SDS011;44116;50.884;4.768;2023-07-13T12:27:48;7.0;;;1.9;;
58306;SDS011;44116;50.884;4.768;2023-07-13T12:29:50;7.6;;;1.7;;
58306;SDS011;44116;50.884;4.768;2023-07-13T12:33:48;4.7;;;1.6;;
58306;SDS011;44116;50.884;4.768;2023-07-13T12:35:50;4.7;;;1.7;;
58306;SDS011;44116;50.884;4.768;2023-07-13T12:37:48;4.5;;;1.8;;
58306;SDS011;44116;50.884;4.768;2023-07-13T12:39:49;5.5;;;1.7;;
58306;SDS011;44116;50.884;4.768;2023-07-13T12:41:49;6.0;;;1.6;;
58306;SDS011;44116;50.884;4.768;2023-07-13T12:43:48;6.2;;;1.5;;
58306;SDS011;44116;50.884;4.768;2023-07-13T12:45:56;4.6;;;1.6;;
58306;SDS011;44116;50.884;4.768;2023-07-13T12:49:54;6.1;;;1.7;;
58306;SDS011;44116;50.884;4.768;2023-07-13T12:51:50;5.2;;;1.5;;
58306;SDS011;44116;50.884;4.768;2023-07-13T12:53:51;5.1;;;1.6;;
58306;SDS011;44116;50.884;4.768;2023-07-13T12:55:53;6.8;;;2.2;;
58306;SDS011;44116;50.884;4.768;2023-07-13T12:57:51;5.3;;;1.8;;
58306;SDS011;44116;50.884;4.768;2023-07-13T12:59:52;6.2;;;1.9;;
58306;SDS011;44116;50.884;4.768;2023-07-13T13:01:50;6.0;;;1.7;;
58306;SDS011;44116;50.884;4.768;2023-07-13T13:03:51;6.8;;;2.0;;
58306;SDS011;44116;50.884;4.768;2023-07-13T13:07:49;3.9;;;1.6;;
58306;SDS011;44116;50.884;4.768;2023-07-13T13:09:50;4.6;;;1.7;;
58306;SDS011;44116;50.884;4.768;2023-07-13T13:11:49;5.6;;;2.0;;
58306;SDS011;44116;50.884;4.768;2023-07-13T13:13:50;3.7;;;1.8;;
58306;SDS011;44116;50.884;4.768;2023-07-13T13:15:50;3.8;;;1.6;;
58306;SDS011;44116;50.884;4.768;2023-07-13T13:17:50;4.0;;;1.9;;
58306;SDS011;44116;50.884;4.768;2023-07-13T13:19:50;5.1;;;1.4;;
58306;SDS011;44116;50.884;4.768;2023-07-13T13:25:50;2.8;;;1.3;;
58306;SDS011;44116;50.884;4.768;2023-07-13T13:27:50;4.0;;;1.4;;
58306;SDS011;44116;50.884;4.768;2023-07-13T13:29:50;3.7;;;1.5;;
58306;SDS011;44116;50.884;4.768;2023-07-13T13:31:51;4.4;;;1.4;;
58306;SDS011;44116;50.884;4.768;2023-07-13T13:33:50;3.4;;;1.5;;
58306;SDS011;44116;50.884;4.768;2023-07-13T13:35:50;5.2;;;1.7;;
58306;SDS011;44116;50.884;4.768;2023-07-13T13:41:52;4.5;;;1.8;;
58306;SDS011;44116;50.884;4.768;2023-07-13T13:43:50;6.4;;;1.7;;
58306;SDS011;44116;50.884;4.768;2023-07-13T13:47:50;4.3;;;1.6;;
58306;SDS011;44116;50.884;4.768;2023-07-13T13:49:50;5.4;;;1.8;;
58306;SDS011;44116;50.884;4.768;2023-07-13T13:51:51;3.2;;;1.6;;
58306;SDS011;44116;50.884;4.768;2023-07-13T13:53:51;5.1;;;1.7;;
58306;SDS011;44116;50.884;4.768;2023-07-13T13:57:51;3.0;;;1.6;;
58306;SDS011;44116;50.884;4.768;2023-07-13T14:01:51;4.4;;;1.8;;
58306;SDS011;44116;50.884;4.768;2023-07-13T14:03:51;3.8;;;1.6;;
58306;SDS011;44116;50.884;4.768;2023-07-13T14:05:51;2.8;;;1.5;;
58306;SDS011;44116;50.884;4.768;2023-07-13T14:07:51;3.8;;;1.6;;
58306;SDS011;44116;50.884;4.768;2023-07-13T14:09:52;4.1;;;1.5;;
58306;SDS011;44116;50.884;4.768;2023-07-13T14:11:51;4.8;;;1.7;;
58306;SDS011;44116;50.884;4.768;2023-07-13T14:13:54;3.6;;;1.6;;
58306;SDS011;44116;50.884;4.768;2023-07-13T14:15:52;6.7;;;1.9;;
58306;SDS011;44116;50.884;4.768;2023-07-13T14:17:52;5.1;;;2.0;;
58306;SDS011;44116;50.884;4.768;2023-07-13T14:19:52;5.1;;;1.8;;
58306;SDS011;44116;50.884;4.768;2023-07-13T14:21:52;4.8;;;1.7;;
58306;SDS011;44116;50.884;4.768;2023-07-13T14:25:52;5.1;;;1.8;;
58306;SDS011;44116;50.884;4.768;2023-07-13T14:27:57;5.5;;;1.6;;
58306;SDS011;44116;50.884;4.768;2023-07-13T14:29:52;4.9;;;1.9;;
58306;SDS011;44116;50.884;4.768;2023-07-13T14:31:52;3.4;;;1.6;;
58306;SDS011;44116;50.884;4.768;2023-07-13T14:33:52;4.2;;;1.5;;
58306;SDS011;44116;50.884;4.768;2023-07-13T14:35:52;5.2;;;1.6;;
58306;SDS011;44116;50.884;4.768;2023-07-13T14:37:52;4.9;;;1.9;;
58306;SDS011;44116;50.884;4.768;2023-07-13T14:39:52;4.6;;;1.8;;
58306;SDS011;44116;50.884;4.768;2023-07-13T14:41:54;4.1;;;1.6;;
58306;SDS011;44116;50.884;4.768;2023-07-13T14:43:52;6.1;;;2.1;;
58306;SDS011;44116;50.884;4.768;2023-07-13T14:45:53;5.0;;;1.5;;
58306;SDS011;44116;50.884;4.768;2023-07-13T14:47:53;6.3;;;1.8;;
58306;SDS011;44116;50.884;4.768;2023-07-13T14:49:53;3.9;;;1.6;;
58306;SDS011;44116;50.884;4.768;2023-07-13T14:51:54;4.7;;;1.5;;
58306;SDS011;44116;50.884;4.768;2023-07-13T14:53:53;5.1;;;1.9;;
58306;SDS011;44116;50.884;4.768;2023-07-13T14:55:53;3.8;;;1.5;;